Time;durP1;ratioP1;P1;durP2;ratioP2;P2;SDS_P1;SDS_P2;PMS_P1;PMS_P2;Temp;Humidity;BMP_temperature;BMP_pressure;BME280_temperature;BME280_humidity;BME280_pressure;Samples;Min_cycle;Max_cycle;Signal;HPM_P1;HPM_P2
2022/06/05 00:00:31;;;;;;;6.80;5.97;;;18.50;99.90;;;;;;5113325;28;20256;-59
2022/06/05 00:03:22;;;;;;;7.35;6.15;;;18.70;99.90;;;;;;5113517;28;20169;-60
2022/06/05 00:06:07;;;;;;;7.30;5.90;;;18.80;99.90;;;;;;5113416;28;20642;-59
2022/06/05 00:08:48;;;;;;;7.50;6.40;;;18.80;99.90;;;;;;5113856;28;20320;-60
2022/06/05 00:11:15;;;;;;;7.38;5.70;;;18.80;99.90;;;;;;5117368;28;20200;-59
2022/06/05 00:13:53;;;;;;;6.50;5.85;;;18.90;99.90;;;;;;5115991;28;20218;-60
2022/06/05 00:16:25;;;;;;;6.85;5.85;;;18.80;99.90;;;;;;5115921;28;20173;-59
2022/06/05 00:18:51;;;;;;;6.60;5.22;;;18.60;99.90;;;;;;5116971;28;20666;-59
2022/06/05 00:21:17;;;;;;;6.35;5.63;;;18.50;99.90;;;;;;5115626;28;20268;-59
2022/06/05 00:23:43;;;;;;;6.63;5.95;;;18.40;99.90;;;;;;5117091;28;20180;-58
2022/06/05 00:26:31;;;;;;;6.82;5.47;;;18.40;99.90;;;;;;5116989;28;20521;-59
2022/06/05 00:29:29;;;;;;;7.05;5.57;;;18.50;99.90;;;;;;5116917;28;20173;-59
2022/06/05 00:32:08;;;;;;;6.38;5.78;;;18.60;99.90;;;;;;5116803;28;20165;-59
2022/06/05 00:34:34;;;;;;;6.07;5.47;;;18.60;99.90;;;;;;5116841;28;20252;-59
2022/06/05 00:37:29;;;;;;;7.25;6.18;;;18.50;99.90;;;;;;5116715;28;20265;-59
2022/06/05 00:40:27;;;;;;;7.75;5.55;;;18.60;99.90;;;;;;5116533;28;20189;-59
2022/06/05 00:42:53;;;;;;;6.93;5.68;;;18.60;99.90;;;;;;5117015;27;20233;-60
2022/06/05 00:45:19;;;;;;;6.57;5.70;;;18.50;99.90;;;;;;5116572;28;20575;-59
2022/06/05 00:47:47;;;;;;;6.32;5.10;;;18.50;99.90;;;;;;5116414;28;20688;-60
2022/06/05 00:50:17;;;;;;;5.75;4.88;;;18.40;99.90;;;;;;5115484;28;20174;-60
2022/06/05 00:52:47;;;;;;;6.18;5.45;;;18.50;99.90;;;;;;5116544;28;20270;-60
2022/06/05 00:55:14;;;;;;;5.72;5.07;;;18.50;99.90;;;;;;5116771;28;20173;-59
2022/06/05 00:57:40;;;;;;;6.78;5.90;;;18.50;99.90;;;;;;5116463;28;20204;-60
2022/06/05 01:00:15;;;;;;;7.28;5.53;;;18.50;99.90;;;;;;5116149;28;20177;-60
2022/06/05 01:02:43;;;;;;;8.90;6.55;;;18.50;99.90;;;;;;5116128;28;20244;-60
2022/06/05 01:05:10;;;;;;;9.52;6.75;;;18.50;99.90;;;;;;5115957;28;20248;-60
2022/06/05 01:07:36;;;;;;;9.20;6.38;;;18.40;99.90;;;;;;5116245;28;20626;-59
2022/06/05 01:10:05;;;;;;;9.05;7.47;;;18.40;99.90;;;;;;5116043;28;20223;-59
2022/06/05 01:12:33;;;;;;;8.23;7.28;;;18.50;99.90;;;;;;5115941;28;20177;-59
2022/06/05 01:15:14;;;;;;;8.38;7.50;;;18.50;99.90;;;;;;5115852;28;20241;-59
2022/06/05 01:17:56;;;;;;;7.47;6.70;;;18.40;99.90;;;;;;5115827;28;20201;-61
2022/06/05 01:20:39;;;;;;;8.23;6.60;;;18.30;99.90;;;;;;5115469;28;20200;-59
2022/06/05 01:23:29;;;;;;;7.70;6.47;;;18.20;99.90;;;;;;5115827;28;20173;-60
2022/06/05 01:25:55;;;;;;;7.50;6.47;;;18.20;99.90;;;;;;5115619;28;20208;-60
2022/06/05 01:28:25;;;;;;;9.02;7.15;;;18.20;99.90;;;;;;5115826;28;20182;-60
2022/06/05 01:31:19;;;;;;;11.13;7.63;;;18.10;99.90;;;;;;5115990;28;20164;-59
2022/06/05 01:34:04;;;;;;;10.95;7.32;;;18.20;99.90;;;;;;5103384;28;20189;-59
2022/06/05 01:36:49;;;;;;;9.43;7.28;;;18.20;99.90;;;;;;5114358;28;20260;-60
2022/06/05 01:39:28;;;;;;;7.30;6.60;;;18.20;99.90;;;;;;5115404;28;20207;-59
2022/06/05 01:41:57;;;;;;;8.48;6.85;;;18.30;99.90;;;;;;5115432;28;20181;-59
2022/06/05 01:44:36;;;;;;;8.63;7.25;;;18.20;99.90;;;;;;5113959;28;20205;-60
2022/06/05 01:47:17;;;;;;;8.13;6.38;;;18.20;99.90;;;;;;5114224;28;20550;-60
2022/06/05 01:49:54;;;;;;;7.40;5.85;;;18.20;99.90;;;;;;5115414;28;20254;-59
2022/06/05 01:52:28;;;;;;;7.30;5.55;;;18.20;99.90;;;;;;5115230;28;20298;-60
2022/06/05 01:55:13;;;;;;;7.18;6.00;;;18.20;99.90;;;;;;5115164;28;20164;-60
2022/06/05 01:57:38;;;;;;;6.00;5.40;;;18.20;99.90;;;;;;5115142;28;20192;-59
2022/06/05 02:00:04;;;;;;;5.60;5.00;;;18.10;99.90;;;;;;5115137;28;20182;-60
2022/06/05 02:02:36;;;;;;;6.43;5.80;;;18.00;99.90;;;;;;5114980;28;20203;-60
2022/06/05 02:05:18;;;;;;;7.22;6.35;;;18.00;99.90;;;;;;5114977;28;20568;-59
2022/06/05 02:07:52;;;;;;;6.70;5.47;;;18.00;99.90;;;;;;5115058;28;20174;-59
2022/06/05 02:10:53;;;;;;;7.03;5.57;;;18.00;99.90;;;;;;5115218;28;20230;-60
2022/06/05 02:13:19;;;;;;;6.05;5.45;;;18.00;99.90;;;;;;5081873;28;20185;-60
2022/06/05 02:15:47;;;;;;;6.38;5.75;;;18.10;99.90;;;;;;5114721;28;20559;-59
2022/06/05 02:18:13;;;;;;;6.35;5.32;;;18.20;99.90;;;;;;5114746;28;20224;-59
2022/06/05 02:20:41;;;;;;;7.40;5.88;;;18.10;99.90;;;;;;5113430;28;20268;-59
2022/06/05 02:23:14;;;;;;;6.22;5.35;;;18.10;99.90;;;;;;5114537;28;20167;-60
2022/06/05 02:25:40;;;;;;;6.60;5.75;;;18.10;99.90;;;;;;5114620;28;20161;-59
2022/06/05 02:28:11;;;;;;;7.32;6.13;;;18.10;99.90;;;;;;5114413;28;20208;-60
2022/06/05 02:31:07;;;;;;;7.18;6.47;;;18.00;99.90;;;;;;5114622;28;20154;-59
2022/06/05 02:33:54;;;;;;;5.57;5.05;;;18.00;99.90;;;;;;5114456;28;20569;-59
2022/06/05 02:36:34;;;;;;;7.57;5.97;;;17.90;99.90;;;;;;5114552;28;20165;-59
2022/06/05 02:39:11;;;;;;;6.70;5.90;;;17.80;99.90;;;;;;5114458;28;20211;-59
2022/06/05 02:41:56;;;;;;;5.88;5.13;;;17.90;99.90;;;;;;5114273;28;20178;-59
2022/06/05 02:44:31;;;;;;;6.82;5.85;;;17.90;99.90;;;;;;5114261;28;20294;-59
2022/06/05 02:47:07;;;;;;;6.68;5.80;;;17.80;99.90;;;;;;5112768;28;20267;-59
2022/06/05 02:49:42;;;;;;;7.38;6.40;;;17.90;99.90;;;;;;5114349;28;20573;-59
2022/06/05 02:52:08;;;;;;;7.22;5.95;;;17.80;99.90;;;;;;5114179;28;20173;-59
2022/06/05 02:54:40;;;;;;;7.50;6.22;;;17.80;99.90;;;;;;5114212;28;20243;-59
2022/06/05 02:57:07;;;;;;;8.43;6.72;;;17.80;99.90;;;;;;5112773;28;20525;-59
2022/06/05 02:59:32;;;;;;;9.05;7.47;;;17.70;99.90;;;;;;5112589;28;20189;-59
2022/06/05 03:04:42;;;;;;;9.52;7.13;;;17.70;99.90;;;;;;5113181;28;20558;-59
2022/06/05 03:07:08;;;;;;;10.48;7.20;;;17.70;99.90;;;;;;5112513;28;20189;-59
2022/06/05 03:09:35;;;;;;;8.63;7.15;;;17.70;99.90;;;;;;5112610;28;20545;-59
2022/06/05 03:12:01;;;;;;;9.05;7.38;;;17.80;99.90;;;;;;5113738;28;20191;-59
2022/06/05 03:14:27;;;;;;;8.73;7.25;;;17.70;99.90;;;;;;5113994;28;20185;-59
2022/06/05 03:16:53;;;;;;;8.25;6.43;;;17.70;99.90;;;;;;5113676;28;20165;-59
2022/06/05 03:19:19;;;;;;;7.10;6.40;;;17.70;99.90;;;;;;5113515;28;20215;-59
2022/06/05 03:21:44;;;;;;;10.82;6.95;;;17.70;99.90;;;;;;5112429;28;20623;-59
2022/06/05 03:24:10;;;;;;;8.63;7.65;;;17.60;99.90;;;;;;5112432;28;20169;-59
2022/06/05 03:26:36;;;;;;;9.25;6.60;;;17.70;99.90;;;;;;5113622;28;20169;-59
2022/06/05 03:29:03;;;;;;;7.40;5.72;;;17.70;99.90;;;;;;5113845;28;20177;-59
2022/06/05 03:31:29;;;;;;;6.78;6.07;;;17.60;99.90;;;;;;5114051;28;20207;-59
2022/06/05 03:33:55;;;;;;;7.25;6.45;;;17.60;99.90;;;;;;5113758;28;20200;-59
2022/06/05 03:36:21;;;;;;;7.53;6.20;;;17.60;99.90;;;;;;5113766;28;20169;-59
2022/06/05 03:38:47;;;;;;;7.20;6.20;;;17.60;99.90;;;;;;5113498;28;20197;-59
2022/06/05 03:41:17;;;;;;;7.75;5.85;;;17.60;99.90;;;;;;5095252;28;20637;-59
2022/06/05 03:43:43;;;;;;;7.75;6.22;;;17.60;99.90;;;;;;5116442;28;20222;-59
2022/06/05 03:46:11;;;;;;;8.57;6.57;;;17.60;99.90;;;;;;5117782;28;20207;-59
2022/06/05 03:48:38;;;;;;;7.30;6.22;;;17.60;99.90;;;;;;5116334;28;20202;-59
2022/06/05 03:51:13;;;;;;;7.57;6.28;;;17.60;99.90;;;;;;5117450;28;20626;-60
2022/06/05 03:53:39;;;;;;;8.02;6.45;;;17.60;99.90;;;;;;5117366;28;20636;-59
2022/06/05 03:56:10;;;;;;;7.88;6.20;;;17.60;99.90;;;;;;5116237;28;20529;-59
2022/06/05 03:58:36;;;;;;;8.13;6.65;;;17.60;99.90;;;;;;5116189;28;20197;-59
2022/06/05 04:01:02;;;;;;;8.32;6.93;;;17.60;99.90;;;;;;5117456;28;20178;-59
2022/06/05 04:03:28;;;;;;;8.57;6.88;;;17.50;99.90;;;;;;5117347;28;20169;-61
2022/06/05 04:05:53;;;;;;;6.97;6.28;;;17.60;99.90;;;;;;5117349;28;20533;-59
2022/06/05 04:08:19;;;;;;;7.50;6.65;;;17.60;99.90;;;;;;5115914;28;20181;-60
2022/06/05 04:10:44;;;;;;;8.50;6.72;;;17.50;99.90;;;;;;5117275;28;20204;-59
2022/06/05 04:13:10;;;;;;;8.13;6.85;;;17.50;99.90;;;;;;5117639;28;20202;-59
2022/06/05 04:15:39;;;;;;;9.60;6.95;;;17.60;99.90;;;;;;5115841;28;20169;-59
2022/06/05 04:18:06;;;;;;;7.13;6.25;;;17.50;99.90;;;;;;5117022;28;20204;-60
2022/06/05 04:20:33;;;;;;;7.10;6.38;;;17.60;99.90;;;;;;5116941;28;20169;-59
2022/06/05 04:22:59;;;;;;;7.55;6.03;;;17.60;99.90;;;;;;5115519;28;20181;-59
2022/06/05 04:25:25;;;;;;;8.38;6.55;;;17.50;99.90;;;;;;5117098;27;20572;-59
2022/06/05 04:27:51;;;;;;;7.47;6.13;;;17.50;99.90;;;;;;5116854;28;20169;-59
2022/06/05 04:30:17;;;;;;;7.55;6.05;;;17.60;99.90;;;;;;5116777;28;20637;-60
2022/06/05 04:32:43;;;;;;;6.93;6.18;;;17.60;99.90;;;;;;5116748;28;20186;-60
2022/06/05 04:35:09;;;;;;;7.35;6.03;;;17.50;99.90;;;;;;5116580;28;20254;-59
2022/06/05 04:37:36;;;;;;;6.82;5.90;;;17.60;99.90;;;;;;5116481;28;20677;-59
2022/06/05 04:40:03;;;;;;;7.95;6.10;;;17.60;99.90;;;;;;5116843;28;20169;-59
2022/06/05 04:42:30;;;;;;;7.15;5.93;;;17.50;99.90;;;;;;5115417;28;20184;-60
2022/06/05 04:44:56;;;;;;;6.55;5.72;;;17.60;99.90;;;;;;5115516;28;20200;-59
2022/06/05 04:47:22;;;;;;;7.53;5.88;;;17.50;99.90;;;;;;5115389;28;20169;-59
2022/06/05 04:49:47;;;;;;;7.70;5.70;;;17.40;99.90;;;;;;5115186;28;20575;-60
2022/06/05 04:52:13;;;;;;;9.27;6.28;;;17.50;99.90;;;;;;5116600;28;20183;-59
2022/06/05 04:54:39;;;;;;;7.75;6.47;;;17.60;99.90;;;;;;5115580;28;20354;-59
2022/06/05 04:57:05;;;;;;;5.88;5.20;;;17.50;99.90;;;;;;5116392;28;20197;-60
2022/06/05 04:59:30;;;;;;;6.53;5.68;;;17.40;99.90;;;;;;5116264;28;20214;-60
2022/06/05 05:01:56;;;;;;;8.18;5.97;;;17.50;99.90;;;;;;5116229;28;20526;-60
2022/06/05 05:04:22;;;;;;;7.28;5.93;;;17.50;99.90;;;;;;5116103;28;20569;-59
2022/06/05 05:06:47;;;;;;;7.50;5.70;;;17.50;99.90;;;;;;5116161;28;20185;-59
2022/06/05 05:09:14;;;;;;;6.75;5.78;;;17.50;99.90;;;;;;5116226;28;20204;-59
2022/06/05 05:11:40;;;;;;;7.72;5.72;;;17.50;99.90;;;;;;5116121;28;20169;-59
2022/06/05 05:14:06;;;;;;;7.22;5.75;;;17.50;99.90;;;;;;5114969;28;20180;-59
2022/06/05 05:16:32;;;;;;;7.63;5.72;;;17.60;99.90;;;;;;5116016;28;20176;-59
2022/06/05 05:18:58;;;;;;;7.32;6.20;;;17.50;99.90;;;;;;5115752;28;20201;-59
2022/06/05 05:21:26;;;;;;;7.00;5.78;;;17.60;99.90;;;;;;5116009;28;20188;-59
2022/06/05 05:23:52;;;;;;;7.38;5.88;;;17.60;99.90;;;;;;5115961;28;20162;-59
2022/06/05 05:26:30;;;;;;;6.72;5.40;;;17.60;99.90;;;;;;5115632;28;20201;-59
2022/06/05 05:28:57;;;;;;;6.75;6.03;;;17.60;99.90;;;;;;5115568;28;20536;-59
2022/06/05 05:31:26;;;;;;;7.43;5.85;;;17.60;99.90;;;;;;5115618;28;20260;-59
2022/06/05 05:33:52;;;;;;;7.65;6.00;;;17.50;99.90;;;;;;5115376;28;20170;-58
2022/06/05 05:36:20;;;;;;;7.93;5.78;;;17.60;99.90;;;;;;5115054;28;20530;-59
2022/06/05 05:44:17;;;;;;;6.43;5.47;;;17.60;99.90;;;;;;5115662;28;20565;-59
2022/06/05 05:46:43;;;;;;;6.47;5.32;;;17.60;99.90;;;;;;5115530;28;20169;-59
2022/06/05 05:49:10;;;;;;;6.97;5.75;;;17.60;99.90;;;;;;5115392;28;20760;-59
2022/06/05 05:51:36;;;;;;;6.20;5.35;;;17.60;99.90;;;;;;5115567;28;20219;-59
2022/06/05 05:54:03;;;;;;;6.70;5.65;;;17.70;99.90;;;;;;5115012;28;20609;-59
2022/06/05 05:56:29;;;;;;;7.05;5.22;;;17.80;99.90;;;;;;5114805;28;20230;-59
2022/06/05 05:58:55;;;;;;;6.60;5.38;;;17.70;99.90;;;;;;5113790;28;20205;-59
2022/06/05 06:01:21;;;;;;;6.28;5.40;;;17.70;99.90;;;;;;5114860;28;20660;-59
2022/06/05 06:03:46;;;;;;;9.05;5.45;;;17.80;99.90;;;;;;5114993;28;20222;-59
2022/06/05 06:06:12;;;;;;;8.10;5.28;;;17.80;99.90;;;;;;5114655;28;20197;-59
2022/06/05 06:08:37;;;;;;;6.22;5.55;;;17.90;99.90;;;;;;5114701;28;20523;-59
2022/06/05 06:11:03;;;;;;;8.65;5.43;;;17.90;99.90;;;;;;5114659;28;20196;-59
2022/06/05 06:13:29;;;;;;;7.10;5.90;;;17.90;99.90;;;;;;5114474;28;20210;-59
2022/06/05 06:15:55;;;;;;;6.55;5.32;;;17.90;99.90;;;;;;5114789;28;20165;-59
2022/06/05 06:18:21;;;;;;;6.13;5.20;;;17.80;99.90;;;;;;5114840;28;20201;-59
2022/06/05 06:20:47;;;;;;;5.93;5.03;;;17.90;99.90;;;;;;5113448;28;20178;-59
2022/06/05 06:23:14;;;;;;;7.05;5.43;;;17.90;99.90;;;;;;5113578;28;20204;-59
2022/06/05 06:25:41;;;;;;;7.18;5.95;;;18.00;99.90;;;;;;5113476;28;20169;-59
2022/06/05 06:28:06;;;;;;;7.03;5.90;;;17.90;99.90;;;;;;5113883;28;20237;-59
2022/06/05 06:30:36;;;;;;;7.50;5.00;;;18.00;99.90;;;;;;5110732;28;20256;-59
2022/06/05 06:33:03;;;;;;;6.70;5.22;;;18.10;99.90;;;;;;5113297;28;20290;-59
2022/06/05 06:35:29;;;;;;;6.82;5.10;;;18.30;99.90;;;;;;5111839;28;20254;-61
2022/06/05 06:37:54;;;;;;;6.30;5.53;;;18.30;99.90;;;;;;5111549;28;20607;-59
2022/06/05 06:40:20;;;;;;;6.47;5.68;;;18.40;99.90;;;;;;5111284;28;20268;-59
2022/06/05 06:42:46;;;;;;;5.97;5.10;;;18.50;99.90;;;;;;5114249;28;20196;-59
2022/06/05 06:45:12;;;;;;;6.57;5.85;;;18.70;99.90;;;;;;5112996;28;20177;-59
2022/06/05 06:47:38;;;;;;;8.10;6.15;;;18.70;99.90;;;;;;5113153;28;20165;-59
2022/06/05 06:50:04;;;;;;;7.20;6.07;;;18.80;99.90;;;;;;5112936;28;20273;-59
2022/06/05 06:52:30;;;;;;;7.05;6.05;;;18.90;99.90;;;;;;5113964;28;20216;-58
2022/06/05 06:54:56;;;;;;;7.43;5.80;;;18.90;99.90;;;;;;5113915;28;20177;-59
2022/06/05 06:57:21;;;;;;;7.20;5.85;;;18.80;99.90;;;;;;5113765;28;20285;-59
2022/06/05 06:59:47;;;;;;;7.55;6.32;;;19.00;99.90;;;;;;5112717;28;20216;-59
2022/06/05 07:02:13;;;;;;;6.75;5.38;;;19.10;99.90;;;;;;5114045;28;20173;-59
2022/06/05 07:04:39;;;;;;;8.35;5.90;;;19.10;99.90;;;;;;5112757;28;20177;-58
2022/06/05 07:07:05;;;;;;;7.90;6.43;;;19.10;99.90;;;;;;5114060;28;20189;-58
2022/06/05 07:09:32;;;;;;;6.68;5.82;;;19.30;99.90;;;;;;5113724;28;20256;-59
2022/06/05 07:11:57;;;;;;;8.57;6.68;;;19.60;99.90;;;;;;5114002;28;20173;-59
2022/06/05 07:14:25;;;;;;;6.68;5.72;;;19.80;99.90;;;;;;5112718;28;20181;-61
2022/06/05 07:16:51;;;;;;;7.70;6.28;;;19.80;99.90;;;;;;5112537;28;20177;-59
2022/06/05 07:19:17;;;;;;;8.32;5.93;;;20.10;99.90;;;;;;5111559;28;20200;-59
2022/06/05 07:21:43;;;;;;;8.50;6.22;;;20.10;99.90;;;;;;5113226;28;20208;-60
2022/06/05 07:24:09;;;;;;;7.90;6.50;;;20.10;99.90;;;;;;5113146;28;20554;-59
2022/06/05 07:26:35;;;;;;;7.25;6.45;;;19.50;99.90;;;;;;5113689;28;20169;-59
2022/06/05 07:29:02;;;;;;;7.55;6.05;;;19.30;99.90;;;;;;5111548;28;20180;-60
2022/06/05 07:31:29;;;;;;;6.50;5.75;;;19.40;99.90;;;;;;5112179;28;20169;-60
2022/06/05 07:33:55;;;;;;;9.50;5.38;;;19.50;99.90;;;;;;5113233;28;20193;-59
2022/06/05 07:36:21;;;;;;;8.20;6.20;;;19.40;99.90;;;;;;5111068;28;20201;-59
2022/06/05 07:38:47;;;;;;;7.57;6.25;;;19.20;99.90;;;;;;5117414;28;20254;-59
2022/06/05 07:41:26;;;;;;;7.28;5.88;;;19.40;99.90;;;;;;5133008;28;20190;-59
2022/06/05 07:43:52;;;;;;;8.25;6.60;;;19.50;99.90;;;;;;5130490;28;20177;-59
2022/06/05 07:46:18;;;;;;;8.20;7.15;;;19.30;99.90;;;;;;5119314;28;20165;-59
2022/06/05 07:48:44;;;;;;;7.28;6.22;;;19.20;99.90;;;;;;5114368;28;20208;-59
2022/06/05 07:56:51;;;;;;;8.38;7.18;;;19.20;99.90;;;;;;5126051;28;20239;-59
2022/06/05 07:59:17;;;;;;;7.63;6.28;;;19.30;99.90;;;;;;5113109;28;20205;-59
2022/06/05 08:01:43;;;;;;;8.63;6.95;;;19.40;99.90;;;;;;5112854;28;20189;-59
2022/06/05 08:04:09;;;;;;;8.93;6.82;;;19.60;99.90;;;;;;5095568;28;20174;-60
2022/06/05 08:06:35;;;;;;;8.82;7.93;;;19.90;99.90;;;;;;5111877;28;20189;-60
2022/06/05 08:09:03;;;;;;;8.40;7.30;;;20.10;99.90;;;;;;5121285;28;20177;-60
2022/06/05 08:11:28;;;;;;;9.02;7.28;;;19.80;99.90;;;;;;5133871;27;20171;-59
2022/06/05 08:13:54;;;;;;;8.45;7.03;;;19.90;99.90;;;;;;5133702;28;20165;-59
2022/06/05 08:16:20;;;;;;;7.40;6.22;;;19.80;99.90;;;;;;5133414;28;20223;-60
2022/06/05 08:18:45;;;;;;;7.90;7.10;;;19.70;99.90;;;;;;5132521;28;20197;-60
2022/06/05 08:21:11;;;;;;;10.93;8.02;;;19.80;99.90;;;;;;5133451;28;20181;-59
2022/06/05 08:23:37;;;;;;;8.60;6.85;;;20.00;99.90;;;;;;5121171;28;20181;-60
2022/06/05 08:26:03;;;;;;;8.38;6.90;;;20.20;99.90;;;;;;5113177;28;20174;-59
2022/06/05 08:28:29;;;;;;;8.82;6.50;;;20.30;99.90;;;;;;5112986;28;20177;-60
2022/06/05 08:30:55;;;;;;;8.70;6.88;;;20.30;99.90;;;;;;5115664;28;20173;-60
2022/06/05 08:33:22;;;;;;;8.88;6.85;;;20.60;99.90;;;;;;5115526;28;20173;-60
2022/06/05 08:35:49;;;;;;;8.20;6.70;;;20.40;99.90;;;;;;5116872;28;20657;-60
2022/06/05 08:41:26;;;;;;;7.68;6.53;;;20.30;99.90;;;;;;5136269;27;20187;-60
2022/06/05 08:44:11;;;;;;;8.77;6.90;;;20.30;99.90;;;;;;5137207;27;20165;-59
2022/06/05 08:46:42;;;;;;;8.93;7.10;;;20.40;99.90;;;;;;5137242;27;20226;-60
2022/06/05 08:49:21;;;;;;;9.88;7.80;;;20.30;99.90;;;;;;5135550;27;20629;-60
2022/06/05 08:51:55;;;;;;;8.85;7.38;;;20.40;99.90;;;;;;5137187;27;20634;-60
2022/06/05 08:54:53;;;;;;;8.98;7.47;;;20.30;99.90;;;;;;5136815;27;20164;-60
2022/06/05 08:57:22;;;;;;;9.73;7.65;;;20.20;99.90;;;;;;5128230;27;20234;-60
2022/06/05 09:00:16;;;;;;;9.80;7.45;;;20.30;99.90;;;;;;5136645;27;20177;-59
2022/06/05 09:03:16;;;;;;;8.52;6.43;;;20.30;99.90;;;;;;5136775;27;20164;-59
2022/06/05 09:05:48;;;;;;;8.70;6.63;;;20.20;99.90;;;;;;5136701;27;20196;-60
2022/06/05 09:08:24;;;;;;;8.48;6.53;;;20.20;99.90;;;;;;5135301;27;20553;-59
2022/06/05 09:11:05;;;;;;;7.53;6.72;;;20.20;99.90;;;;;;5118931;27;20176;-59
2022/06/05 09:13:42;;;;;;;8.10;6.95;;;20.30;99.90;;;;;;5136959;27;20652;-60
2022/06/05 09:16:13;;;;;;;9.85;7.13;;;20.00;99.90;;;;;;5136539;27;20172;-60
2022/06/05 09:18:48;;;;;;;9.55;6.80;;;20.00;99.90;;;;;;5136495;27;20521;-60
2022/06/05 09:21:35;;;;;;;10.10;7.57;;;20.00;99.90;;;;;;5135623;27;20209;-60
2022/06/05 09:24:15;;;;;;;9.88;7.40;;;19.80;99.90;;;;;;5136500;27;20172;-59
2022/06/05 09:26:44;;;;;;;8.38;6.70;;;19.70;99.90;;;;;;5136652;27;20625;-59
2022/06/05 09:29:26;;;;;;;8.55;6.53;;;19.60;99.90;;;;;;5136136;27;20185;-59
2022/06/05 09:32:20;;;;;;;9.23;6.78;;;19.80;99.90;;;;;;5136358;27;20176;-59
2022/06/05 09:35:15;;;;;;;8.52;6.03;;;19.70;99.90;;;;;;5136242;27;20172;-58
2022/06/05 09:37:48;;;;;;;9.60;7.50;;;19.70;99.90;;;;;;5135393;27;20189;-59
2022/06/05 09:40:23;;;;;;;10.85;7.50;;;19.60;99.90;;;;;;5135573;27;20188;-59
2022/06/05 09:43:11;;;;;;;10.93;7.47;;;19.60;99.90;;;;;;5136107;27;20625;-59
2022/06/05 09:45:37;;;;;;;9.73;7.63;;;19.30;99.90;;;;;;5136035;27;20169;-59
2022/06/05 09:48:20;;;;;;;10.88;7.05;;;19.30;99.90;;;;;;5136024;27;20188;-59
2022/06/05 09:50:45;;;;;;;9.57;7.15;;;19.20;99.90;;;;;;5135702;27;20255;-59
2022/06/05 09:53:19;;;;;;;9.43;7.30;;;19.20;99.90;;;;;;5135760;27;20253;-59
2022/06/05 09:55:45;;;;;;;11.52;8.05;;;19.20;99.90;;;;;;5136036;27;20190;-59
2022/06/05 09:58:25;;;;;;;10.00;7.90;;;19.10;99.90;;;;;;5135498;27;20192;-59
2022/06/05 10:00:54;;;;;;;11.43;8.35;;;19.10;99.90;;;;;;5135805;27;20598;-59
2022/06/05 10:03:26;;;;;;;9.93;7.65;;;19.10;99.90;;;;;;5135575;27;20173;-59
2022/06/05 10:06:35;;;;;;;12.35;8.75;;;19.00;99.90;;;;;;5135415;27;20215;-59
2022/06/05 10:09:18;;;;;;;9.68;7.47;;;19.00;99.90;;;;;;5133871;27;20667;-59
2022/06/05 10:12:01;;;;;;;12.32;7.65;;;18.80;99.90;;;;;;5134448;27;20196;-59
2022/06/05 10:14:57;;;;;;;12.35;8.52;;;18.80;99.90;;;;;;5134065;27;20226;-57
2022/06/05 10:17:41;;;;;;;10.25;8.18;;;18.80;99.90;;;;;;5135694;27;20165;-57
2022/06/05 10:20:13;;;;;;;11.30;8.15;;;18.80;99.90;;;;;;5135474;27;20173;-58
2022/06/05 10:23:02;;;;;;;12.10;8.88;;;18.80;99.90;;;;;;5135332;27;20176;-57
2022/06/05 10:25:43;;;;;;;11.77;8.48;;;18.80;99.90;;;;;;5134083;27;20197;-57
2022/06/05 10:28:22;;;;;;;12.30;8.45;;;18.60;99.90;;;;;;5135230;27;20202;-57
2022/06/05 10:31:00;;;;;;;11.65;8.10;;;18.50;99.90;;;;;;5135003;27;20640;-58
2022/06/05 10:33:33;;;;;;;10.77;7.43;;;18.50;99.90;;;;;;5134909;27;20180;-57
2022/06/05 10:36:08;;;;;;;11.00;7.57;;;18.40;99.90;;;;;;5134927;27;20547;-57
2022/06/05 10:39:07;;;;;;;9.27;7.75;;;18.40;99.90;;;;;;5134932;27;20723;-58
2022/06/05 10:41:32;;;;;;;10.05;7.38;;;18.40;99.90;;;;;;5133652;27;20192;-58
2022/06/05 10:44:17;;;;;;;11.48;8.07;;;18.40;99.90;;;;;;5134777;27;20173;-58
2022/06/05 10:47:06;;;;;;;11.25;8.02;;;18.40;99.90;;;;;;5134954;27;20564;-57
2022/06/05 10:49:53;;;;;;;11.13;8.13;;;18.30;99.90;;;;;;5134795;27;20176;-57
2022/06/05 10:52:30;;;;;;;9.63;7.25;;;18.30;99.90;;;;;;5134036;27;20169;-57
2022/06/05 10:55:14;;;;;;;9.48;7.40;;;18.20;99.90;;;;;;5134832;27;20666;-58
2022/06/05 10:57:49;;;;;;;10.63;8.05;;;18.10;99.90;;;;;;5134537;27;20164;-57
2022/06/05 11:00:22;;;;;;;10.38;7.20;;;18.20;99.90;;;;;;5134626;27;20172;-57
2022/06/05 11:03:11;;;;;;;10.93;7.75;;;18.00;99.90;;;;;;5134422;27;20192;-57
2022/06/05 11:06:07;;;;;;;11.35;7.70;;;18.00;99.90;;;;;;5134560;27;20610;-57
2022/06/05 11:08:39;;;;;;;10.43;7.70;;;17.90;99.90;;;;;;5133173;27;20190;-57
2022/06/05 11:14:30;;;;;;;11.40;8.05;;;17.90;99.90;;;;;;5134672;27;20233;-57
2022/06/05 11:17:19;;;;;;;10.40;7.90;;;18.00;99.90;;;;;;5134360;27;20196;-57
2022/06/05 11:20:10;;;;;;;11.15;8.27;;;17.90;99.90;;;;;;5123850;27;20222;-57
2022/06/05 11:22:40;;;;;;;10.50;7.40;;;17.90;99.90;;;;;;5134351;27;20173;-57
2022/06/05 11:25:28;;;;;;;11.82;7.88;;;17.90;99.90;;;;;;5134479;27;20161;-57
2022/06/05 11:28:18;;;;;;;10.05;7.72;;;18.00;99.90;;;;;;5134280;27;20267;-57
2022/06/05 11:31:09;;;;;;;10.35;7.60;;;18.00;99.90;;;;;;5134193;27;20169;-57
2022/06/05 11:34:01;;;;;;;10.30;7.45;;;18.00;99.90;;;;;;5134170;28;20224;-57
2022/06/05 11:37:20;;;;;;;11.13;7.85;;;18.00;99.90;;;;;;5133747;28;20617;-57
2022/06/05 11:40:09;;;;;;;10.02;7.45;;;18.00;99.90;;;;;;5070798;28;20236;-57
2022/06/05 11:42:40;;;;;;;11.85;8.38;;;18.10;99.90;;;;;;5070827;28;20254;-57
2022/06/05 11:45:44;;;;;;;12.43;8.10;;;18.10;99.90;;;;;;5119004;27;20188;-57
2022/06/05 11:48:13;;;;;;;11.85;8.00;;;18.00;99.90;;;;;;5132732;28;20668;-57
2022/06/05 11:51:00;;;;;;;12.80;7.65;;;18.00;99.90;;;;;;5134013;27;20164;-57
2022/06/05 11:53:44;;;;;;;11.75;7.88;;;18.00;99.90;;;;;;5134187;28;20180;-57
2022/06/05 11:56:39;;;;;;;12.05;8.15;;;18.00;99.90;;;;;;5134086;28;20255;-57
2022/06/05 11:59:40;;;;;;;13.75;8.60;;;18.00;99.90;;;;;;5133809;27;20204;-57
2022/06/05 12:02:42;;;;;;;11.57;7.93;;;18.00;99.90;;;;;;5134103;27;20160;-57
2022/06/05 12:05:25;;;;;;;10.45;7.53;;;18.00;99.90;;;;;;5135843;27;20533;-57
2022/06/05 12:07:58;;;;;;;11.00;7.40;;;17.90;99.90;;;;;;5138027;27;20188;-57
2022/06/05 12:10:28;;;;;;;12.52;8.13;;;18.00;99.90;;;;;;5137887;27;20169;-57
2022/06/05 12:13:28;;;;;;;11.77;8.05;;;18.00;99.90;;;;;;5137836;27;20168;-57
2022/06/05 12:16:04;;;;;;;10.77;8.40;;;18.00;99.90;;;;;;5137488;27;20207;-57
2022/06/05 12:18:38;;;;;;;10.27;7.38;;;17.90;99.90;;;;;;5137717;27;20237;-57
2022/06/05 12:21:21;;;;;;;11.55;8.38;;;18.00;99.90;;;;;;5136449;27;20184;-57
2022/06/05 12:24:10;;;;;;;10.95;7.95;;;17.90;99.90;;;;;;5137542;27;20172;-57
2022/06/05 12:27:20;;;;;;;11.77;7.85;;;17.90;99.90;;;;;;5137501;27;20165;-57
2022/06/05 12:29:50;;;;;;;11.48;7.97;;;17.90;99.90;;;;;;5073948;28;20654;-58
2022/06/05 12:32:27;;;;;;;11.90;8.30;;;17.90;99.90;;;;;;5074271;28;20170;-57
2022/06/05 12:35:11;;;;;;;12.30;8.25;;;17.90;99.90;;;;;;5110586;27;20184;-57
2022/06/05 12:37:44;;;;;;;12.63;8.65;;;18.00;99.90;;;;;;5137603;27;20634;-57
2022/06/05 12:40:23;;;;;;;12.20;8.20;;;18.00;99.90;;;;;;5137372;27;20168;-57
2022/06/05 12:43:02;;;;;;;11.65;8.35;;;18.00;99.90;;;;;;5137082;27;20544;-57
2022/06/05 12:45:31;;;;;;;11.65;8.48;;;18.00;99.90;;;;;;5137343;27;20168;-57
2022/06/05 12:48:21;;;;;;;12.60;9.13;;;17.90;99.90;;;;;;5136971;27;20241;-57
2022/06/05 12:51:13;;;;;;;12.48;9.38;;;17.90;99.90;;;;;;5137494;27;20173;-57
2022/06/05 12:53:52;;;;;;;14.75;9.45;;;18.00;99.90;;;;;;5137222;27;20184;-57
2022/06/05 12:56:43;;;;;;;12.27;8.85;;;18.00;99.90;;;;;;5136997;27;20161;-57
2022/06/05 12:59:10;;;;;;;13.35;9.85;;;18.00;99.90;;;;;;5136854;27;20210;-58
2022/06/05 13:01:43;;;;;;;15.00;10.20;;;18.00;99.90;;;;;;5136857;27;20180;-57
2022/06/05 13:04:35;;;;;;;13.45;9.65;;;18.00;99.90;;;;;;5136957;27;20313;-58
2022/06/05 13:07:14;;;;;;;16.70;10.30;;;18.10;99.90;;;;;;5136730;27;20193;-57
2022/06/05 13:09:48;;;;;;;16.45;10.70;;;18.00;99.90;;;;;;5136796;27;20172;-57
2022/06/05 13:12:26;;;;;;;15.18;10.50;;;17.90;99.90;;;;;;5135231;27;20181;-57
2022/06/05 13:14:57;;;;;;;14.73;10.02;;;17.90;99.90;;;;;;5135361;27;20179;-57
2022/06/05 13:18:06;;;;;;;16.25;10.65;;;17.80;99.90;;;;;;5136441;27;20248;-57
2022/06/05 13:20:54;;;;;;;13.60;9.75;;;17.80;99.90;;;;;;5090590;27;20265;-58
2022/06/05 13:23:47;;;;;;;17.63;11.00;;;17.90;99.90;;;;;;5136576;27;20172;-58
2022/06/05 13:26:25;;;;;;;14.70;11.40;;;17.90;99.90;;;;;;5136394;27;20279;-58
2022/06/05 13:29:15;;;;;;;14.60;9.70;;;17.90;99.90;;;;;;5136144;27;20207;-57
2022/06/05 13:32:02;;;;;;;13.80;9.88;;;18.00;99.90;;;;;;5136441;27;20696;-57
2022/06/05 13:34:37;;;;;;;14.15;10.05;;;18.00;99.90;;;;;;5136244;27;20165;-57
2022/06/05 13:37:21;;;;;;;14.05;10.18;;;18.00;99.90;;;;;;5136417;27;20333;-57